Time;durP1;ratioP1;P1;durP2;ratioP2;P2;SDS_P1;SDS_P2;PMS_P1;PMS_P2;Temp;Humidity;BMP_temperature;BMP_pressure;BME280_temperature;BME280_humidity;BME280_pressure;Samples;Min_cycle;Max_cycle;Signal;HPM_P1;HPM_P2
2024/01/18 00:00:48;;;;;;;27.37;18.80;;;1.10;99.90;;;;;;5032763;28;20262;-73
2024/01/18 00:03:14;;;;;;;26.33;19.43;;;1.10;99.90;;;;;;5030362;28;20192;-74
2024/01/18 00:05:40;;;;;;;24.00;17.70;;;1.10;99.90;;;;;;5031587;28;20696;-74
2024/01/18 00:08:05;;;;;;;24.37;18.47;;;1.10;99.90;;;;;;5031083;28;20424;-74
2024/01/18 00:10:31;;;;;;;25.20;18.20;;;1.10;99.90;;;;;;5032191;28;20184;-74
2024/01/18 00:12:57;;;;;;;26.70;18.97;;;1.10;99.90;;;;;;5014067;28;20190;-73
2024/01/18 00:15:23;;;;;;;23.40;18.10;;;1.10;99.90;;;;;;5031283;28;20444;-72
2024/01/18 00:17:49;;;;;;;27.60;17.97;;;1.10;99.90;;;;;;5035274;28;21103;-74
2024/01/18 00:20:15;;;;;;;23.50;16.80;;;1.10;99.90;;;;;;5034987;28;20435;-73
2024/01/18 00:22:41;;;;;;;24.37;17.60;;;1.10;99.90;;;;;;5018858;28;20198;-73
2024/01/18 00:25:07;;;;;;;25.43;17.87;;;1.10;99.90;;;;;;5034758;28;20475;-73
2024/01/18 00:27:33;;;;;;;23.40;17.30;;;1.10;99.90;;;;;;5035262;28;20195;-74
2024/01/18 00:29:59;;;;;;;28.20;19.00;;;1.10;99.90;;;;;;5035690;28;20432;-73
2024/01/18 00:32:25;;;;;;;23.10;17.53;;;1.10;99.90;;;;;;5034589;28;20192;-72
2024/01/18 00:34:51;;;;;;;26.03;18.00;;;1.10;99.90;;;;;;5035695;28;20452;-74
2024/01/18 00:37:17;;;;;;;25.73;18.27;;;1.10;99.90;;;;;;5035059;28;20332;-73
2024/01/18 00:39:43;;;;;;;29.73;20.43;;;1.10;99.90;;;;;;5017920;28;20523;-73
2024/01/18 00:42:09;;;;;;;22.50;18.00;;;1.10;99.90;;;;;;5034427;28;20193;-74
2024/01/18 00:44:35;;;;;;;23.70;18.40;;;1.10;99.90;;;;;;5036499;28;20424;-74
2024/01/18 00:47:01;;;;;;;24.57;17.73;;;1.20;99.90;;;;;;5034509;28;20487;-74
2024/01/18 00:49:26;;;;;;;23.87;17.70;;;1.20;99.90;;;;;;5036221;28;20428;-73
2024/01/18 00:51:52;;;;;;;22.50;16.50;;;1.20;99.90;;;;;;5035484;28;20210;-73
2024/01/18 00:54:18;;;;;;;22.33;16.97;;;1.20;99.90;;;;;;5035520;28;20182;-73
2024/01/18 00:56:43;;;;;;;26.27;17.50;;;1.20;99.90;;;;;;5036197;28;20634;-73
2024/01/18 00:59:09;;;;;;;25.00;18.40;;;1.20;99.90;;;;;;5034224;28;20196;-73
2024/01/18 01:01:35;;;;;;;24.17;17.47;;;1.20;99.90;;;;;;5036316;28;20181;-73
2024/01/18 01:04:01;;;;;;;24.97;18.83;;;1.10;99.90;;;;;;5016880;28;20194;-73
2024/01/18 01:06:27;;;;;;;21.97;17.37;;;1.10;99.90;;;;;;5035453;28;20309;-74
2024/01/18 01:08:53;;;;;;;24.87;18.40;;;1.10;99.90;;;;;;5035729;28;20520;-73
2024/01/18 01:11:18;;;;;;;23.30;18.20;;;1.10;99.90;;;;;;5034697;28;20265;-72
2024/01/18 01:13:45;;;;;;;23.80;17.60;;;1.10;99.90;;;;;;5035966;28;20178;-74
2024/01/18 01:16:11;;;;;;;23.57;18.23;;;1.00;99.90;;;;;;5033945;28;20259;-73
2024/01/18 01:18:37;;;;;;;22.43;16.80;;;1.10;99.90;;;;;;5035021;28;20516;-73
2024/01/18 01:21:04;;;;;;;25.40;17.47;;;1.00;99.90;;;;;;4999887;28;20516;-73
2024/01/18 01:23:29;;;;;;;21.10;18.47;;;1.00;99.90;;;;;;5034253;28;20182;-74
2024/01/18 01:25:56;;;;;;;24.07;17.93;;;1.00;99.90;;;;;;5033904;28;20470;-73
2024/01/18 01:28:22;;;;;;;24.97;18.60;;;1.10;99.90;;;;;;5034598;28;20178;-74
2024/01/18 01:30:48;;;;;;;26.23;19.30;;;1.10;99.90;;;;;;5033777;28;20420;-72
2024/01/18 01:33:14;;;;;;;22.87;17.70;;;1.00;99.90;;;;;;5033588;28;20205;-74
2024/01/18 01:35:40;;;;;;;27.20;17.60;;;1.10;99.90;;;;;;5035006;28;20765;-72
2024/01/18 01:38:06;;;;;;;25.27;19.43;;;1.00;99.90;;;;;;5016191;28;20444;-72
2024/01/18 01:40:32;;;;;;;23.87;18.60;;;1.10;99.90;;;;;;5035266;28;20190;-72
2024/01/18 01:42:57;;;;;;;22.97;17.93;;;1.00;99.90;;;;;;5034518;28;20667;-73
2024/01/18 01:45:23;;;;;;;24.43;18.13;;;1.10;99.90;;;;;;5034981;28;20289;-72
2024/01/18 01:47:50;;;;;;;27.90;18.83;;;1.10;99.90;;;;;;5034581;28;20205;-73
2024/01/18 01:50:16;;;;;;;24.37;18.53;;;1.00;99.90;;;;;;5034041;28;20186;-72
2024/01/18 01:52:43;;;;;;;28.80;17.60;;;1.10;99.90;;;;;;5034757;28;20458;-72
2024/01/18 01:55:12;;;;;;;25.57;18.13;;;1.10;99.90;;;;;;5033260;28;20540;-73
2024/01/18 01:57:39;;;;;;;22.47;17.60;;;1.10;99.90;;;;;;5034776;28;20447;-73
2024/01/18 02:00:06;;;;;;;25.67;18.97;;;1.10;99.90;;;;;;5032775;28;20428;-73
2024/01/18 02:02:34;;;;;;;25.13;19.33;;;1.10;99.90;;;;;;5034843;28;20432;-73
2024/01/18 02:05:00;;;;;;;25.83;17.90;;;1.00;99.90;;;;;;5032844;28;20479;-73
2024/01/18 02:07:27;;;;;;;25.70;18.10;;;1.10;99.90;;;;;;5034244;28;20957;-73
2024/01/18 02:09:53;;;;;;;24.23;18.60;;;1.00;99.90;;;;;;5033762;28;20507;-73
2024/01/18 02:12:20;;;;;;;23.30;17.60;;;1.10;99.90;;;;;;5033874;28;20595;-73
2024/01/18 02:14:45;;;;;;;23.77;19.03;;;1.00;99.90;;;;;;5033910;28;20186;-73
2024/01/18 02:17:11;;;;;;;26.10;18.80;;;1.00;99.90;;;;;;5000113;28;20475;-73
2024/01/18 02:19:37;;;;;;;27.20;18.67;;;1.00;99.90;;;;;;5034254;28;20181;-73
2024/01/18 02:22:05;;;;;;;23.53;18.13;;;1.00;99.90;;;;;;5032871;28;20186;-73
2024/01/18 02:25:01;;;;;;;23.03;18.80;;;1.00;99.90;;;;;;5033280;28;20170;-73
2024/01/18 02:27:27;;;;;;;24.47;17.70;;;1.00;99.90;;;;;;5016160;28;20454;-74
2024/01/18 02:29:52;;;;;;;27.50;19.63;;;1.00;99.90;;;;;;5033476;28;20811;-73
2024/01/18 02:32:18;;;;;;;24.73;17.90;;;1.00;99.90;;;;;;5015435;28;20423;-73
2024/01/18 02:34:44;;;;;;;26.20;20.17;;;1.00;99.90;;;;;;5033528;28;20181;-74
2024/01/18 02:37:11;;;;;;;26.73;18.57;;;1.00;99.90;;;;;;5015356;28;20221;-74
2024/01/18 02:39:37;;;;;;;23.37;18.40;;;1.00;99.90;;;;;;5032752;28;20278;-73
2024/01/18 02:42:03;;;;;;;25.80;19.23;;;1.00;99.90;;;;;;5032377;28;20425;-73
2024/01/18 02:44:30;;;;;;;26.60;19.40;;;1.00;99.90;;;;;;5016201;28;20490;-73
2024/01/18 02:46:55;;;;;;;24.23;18.03;;;1.00;99.90;;;;;;5031267;28;20506;-76
2024/01/18 02:49:21;;;;;;;21.07;17.20;;;1.00;99.90;;;;;;5033276;28;20429;-73
2024/01/18 02:51:47;;;;;;;23.23;19.10;;;1.00;99.90;;;;;;5032898;28;20182;-75
2024/01/18 02:54:13;;;;;;;27.57;19.90;;;1.00;99.90;;;;;;5032831;28;20272;-73
2024/01/18 02:56:39;;;;;;;25.07;18.60;;;1.00;99.90;;;;;;5033300;28;20515;-73
2024/01/18 02:59:04;;;;;;;25.50;19.00;;;1.00;99.90;;;;;;4999638;28;20189;-72
2024/01/18 03:01:30;;;;;;;24.93;18.40;;;1.00;99.90;;;;;;5032277;28;20429;-73
2024/01/18 03:03:57;;;;;;;27.47;18.80;;;1.00;99.90;;;;;;5033082;28;20213;-74
2024/01/18 03:06:22;;;;;;;26.53;19.00;;;1.00;99.90;;;;;;5032566;28;20556;-73
2024/01/18 03:08:48;;;;;;;30.37;19.73;;;1.00;99.90;;;;;;5032861;28;20528;-73
2024/01/18 03:11:14;;;;;;;27.67;19.10;;;1.00;99.90;;;;;;5032776;28;20583;-73
2024/01/18 03:13:40;;;;;;;24.47;17.90;;;1.00;99.90;;;;;;5032158;28;20482;-73
2024/01/18 03:16:08;;;;;;;26.43;19.90;;;1.00;99.90;;;;;;5031847;28;20966;-73
2024/01/18 03:18:34;;;;;;;24.23;19.30;;;1.00;99.90;;;;;;5033273;28;20195;-74
2024/01/18 03:21:04;;;;;;;27.37;20.10;;;1.00;99.90;;;;;;5032198;28;20527;-76
2024/01/18 03:23:29;;;;;;;25.30;19.37;;;1.00;99.90;;;;;;5033460;28;20757;-74
2024/01/18 03:25:55;;;;;;;28.57;19.00;;;1.00;99.90;;;;;;5032421;28;20465;-73
2024/01/18 03:28:21;;;;;;;28.60;20.27;;;1.00;99.90;;;;;;5032171;28;20623;-74
2024/01/18 03:30:46;;;;;;;28.83;19.33;;;1.00;99.90;;;;;;5032772;28;20708;-74
2024/01/18 03:33:12;;;;;;;27.00;20.30;;;1.00;99.90;;;;;;5032868;28;20181;-74
2024/01/18 03:35:38;;;;;;;24.90;19.30;;;1.00;99.90;;;;;;5014837;28;20186;-74
2024/01/18 03:38:04;;;;;;;28.07;19.17;;;1.00;99.90;;;;;;4998723;28;20324;-74
2024/01/18 03:40:29;;;;;;;27.50;20.10;;;1.00;99.90;;;;;;5032811;28;20515;-73
2024/01/18 03:42:55;;;;;;;25.37;20.57;;;1.00;99.90;;;;;;5032736;28;20201;-73
2024/01/18 03:45:21;;;;;;;26.60;20.53;;;1.00;99.90;;;;;;5031785;28;20784;-73
2024/01/18 03:47:47;;;;;;;26.30;19.43;;;1.00;99.90;;;;;;5032666;28;20545;-73
2024/01/18 03:50:12;;;;;;;33.10;21.63;;;1.00;99.90;;;;;;5032664;28;20510;-74
2024/01/18 03:52:38;;;;;;;30.07;20.50;;;1.00;99.90;;;;;;5035605;28;20195;-74
2024/01/18 03:55:05;;;;;;;25.07;20.20;;;1.00;99.90;;;;;;5018244;28;20194;-75
2024/01/18 03:57:31;;;;;;;26.23;20.33;;;1.00;99.90;;;;;;5035589;28;20182;-74
2024/01/18 03:59:57;;;;;;;25.73;20.80;;;1.00;99.90;;;;;;5036866;28;20780;-72
2024/01/18 04:02:22;;;;;;;23.90;19.03;;;1.00;99.90;;;;;;5036481;28;20428;-74
2024/01/18 04:04:48;;;;;;;28.03;21.27;;;1.00;99.90;;;;;;5035889;28;20923;-73
2024/01/18 04:07:15;;;;;;;28.87;20.27;;;1.00;99.90;;;;;;5036266;28;20607;-74
2024/01/18 04:09:40;;;;;;;25.70;21.00;;;1.00;99.90;;;;;;5035866;28;20246;-72
2024/01/18 04:12:07;;;;;;;26.97;20.80;;;1.10;99.90;;;;;;5036110;28;20468;-74
2024/01/18 04:14:33;;;;;;;30.20;22.63;;;1.00;99.90;;;;;;5036353;28;20218;-75
2024/01/18 04:16:58;;;;;;;31.13;21.37;;;1.00;99.90;;;;;;5035284;28;20981;-74
2024/01/18 04:19:24;;;;;;;27.80;20.27;;;1.00;99.90;;;;;;5018815;28;20481;-74
2024/01/18 04:21:50;;;;;;;28.00;22.37;;;1.10;99.90;;;;;;5035446;28;20241;-73
2024/01/18 04:24:16;;;;;;;26.97;21.30;;;1.10;99.90;;;;;;5036549;28;20838;-74
2024/01/18 04:26:42;;;;;;;33.50;22.13;;;1.00;99.90;;;;;;5034769;28;20213;-74
2024/01/18 04:29:07;;;;;;;29.90;22.40;;;1.00;99.90;;;;;;5036188;28;20432;-73
2024/01/18 04:31:33;;;;;;;25.73;20.23;;;1.10;99.90;;;;;;5035829;28;20594;-75
2024/01/18 04:33:59;;;;;;;29.33;20.43;;;1.10;99.90;;;;;;5035588;28;20270;-74
2024/01/18 04:36:25;;;;;;;27.47;20.77;;;1.10;99.90;;;;;;5017871;28;20267;-75
2024/01/18 04:38:51;;;;;;;30.27;22.63;;;1.10;99.90;;;;;;5035118;28;21169;-73
2024/01/18 04:41:17;;;;;;;38.87;20.60;;;1.10;99.90;;;;;;5035129;28;20194;-72
2024/01/18 04:43:43;;;;;;;28.23;20.00;;;1.10;99.90;;;;;;5034907;28;20428;-74
2024/01/18 04:46:10;;;;;;;22.63;19.77;;;1.10;99.90;;;;;;5017613;28;21200;-73
2024/01/18 04:48:36;;;;;;;27.17;20.63;;;1.10;99.90;;;;;;5018263;28;20787;-73
2024/01/18 04:51:03;;;;;;;30.80;21.70;;;1.10;99.90;;;;;;5034135;28;20942;-73
2024/01/18 04:53:29;;;;;;;31.00;23.20;;;1.00;99.90;;;;;;5035484;28;20425;-73
2024/01/18 04:55:55;;;;;;;25.03;21.33;;;1.00;99.90;;;;;;5035055;28;20518;-74
2024/01/18 04:58:21;;;;;;;33.50;23.37;;;1.10;99.90;;;;;;5035226;28;20519;-72
2024/01/18 05:00:47;;;;;;;27.60;20.47;;;1.00;99.90;;;;;;5034397;28;20412;-73
2024/01/18 05:03:13;;;;;;;26.83;21.83;;;1.10;99.90;;;;;;5034577;28;20431;-73
2024/01/18 05:05:38;;;;;;;33.13;22.73;;;1.10;99.90;;;;;;5034659;28;20229;-74
2024/01/18 05:08:04;;;;;;;27.83;21.80;;;1.10;99.90;;;;;;5017829;28;20181;-73
2024/01/18 05:10:30;;;;;;;28.13;21.37;;;1.00;99.90;;;;;;5017518;28;20332;-74
2024/01/18 05:12:56;;;;;;;25.93;20.80;;;1.00;99.90;;;;;;5034775;28;20428;-74
2024/01/18 05:15:24;;;;;;;29.93;22.07;;;1.00;99.90;;;;;;5033943;28;20205;-73
2024/01/18 05:17:50;;;;;;;27.47;20.97;;;1.00;99.90;;;;;;5034469;28;20440;-72
2024/01/18 05:20:17;;;;;;;27.07;21.17;;;1.00;99.90;;;;;;5035274;28;20420;-73
2024/01/18 05:22:43;;;;;;;28.37;21.17;;;1.00;99.90;;;;;;5033756;28;20424;-73
2024/01/18 05:25:09;;;;;;;27.93;21.70;;;1.00;99.90;;;;;;5034754;28;20934;-74
2024/01/18 05:27:36;;;;;;;31.83;22.77;;;1.00;99.90;;;;;;5034667;28;20435;-73
2024/01/18 05:30:07;;;;;;;30.20;22.07;;;1.00;99.90;;;;;;5034743;28;20235;-73
2024/01/18 05:32:32;;;;;;;28.07;21.93;;;1.00;99.90;;;;;;5032429;28;20436;-74
2024/01/18 05:34:59;;;;;;;29.80;22.20;;;1.00;99.90;;;;;;5033834;28;20506;-73
2024/01/18 05:37:25;;;;;;;26.77;21.27;;;0.90;99.90;;;;;;5033491;28;20424;-74
2024/01/18 05:39:50;;;;;;;26.70;21.90;;;1.00;99.90;;;;;;5033746;28;20428;-73
2024/01/18 05:42:18;;;;;;;24.87;20.30;;;0.90;99.90;;;;;;5033587;28;20190;-73
2024/01/18 05:44:46;;;;;;;26.90;21.23;;;0.90;99.90;;;;;;5032305;28;20599;-73
2024/01/18 05:47:12;;;;;;;25.37;21.17;;;0.90;99.90;;;;;;5034309;28;20429;-72
2024/01/18 05:49:38;;;;;;;27.57;21.47;;;0.90;99.90;;;;;;5034376;28;20837;-74
2024/01/18 05:52:04;;;;;;;28.23;21.53;;;0.90;99.90;;;;;;5033975;28;20466;-73
2024/01/18 05:54:29;;;;;;;31.13;22.43;;;0.90;99.90;;;;;;5034461;28;20232;-74
2024/01/18 05:56:55;;;;;;;29.63;22.93;;;0.80;99.90;;;;;;5033918;28;21164;-74
2024/01/18 05:59:21;;;;;;;27.63;22.50;;;0.90;99.90;;;;;;5034303;28;20206;-73
2024/01/18 06:01:46;;;;;;;31.50;22.20;;;0.80;99.90;;;;;;5034477;28;20178;-73
2024/01/18 06:04:13;;;;;;;31.40;22.10;;;0.80;99.90;;;;;;5033522;28;20251;-73
2024/01/18 06:06:39;;;;;;;29.30;21.83;;;0.80;99.90;;;;;;5033554;28;20265;-75
2024/01/18 06:09:05;;;;;;;25.20;19.37;;;0.80;99.90;;;;;;5032775;28;20436;-73
2024/01/18 06:11:30;;;;;;;30.77;21.80;;;0.80;99.90;;;;;;5033535;28;20938;-74
2024/01/18 06:13:56;;;;;;;27.60;21.70;;;0.80;99.90;;;;;;5015829;28;20562;-75
2024/01/18 06:16:22;;;;;;;27.30;20.50;;;0.80;99.90;;;;;;5032818;28;20205;-74
2024/01/18 06:18:48;;;;;;;27.43;21.00;;;0.80;99.90;;;;;;5033242;28;20433;-74
2024/01/18 06:21:13;;;;;;;26.53;19.60;;;0.70;99.90;;;;;;5016005;28;20269;-73
2024/01/18 06:23:42;;;;;;;28.80;21.83;;;0.80;99.90;;;;;;5033500;28;20664;-75
2024/01/18 06:26:12;;;;;;;26.57;21.33;;;0.70;99.90;;;;;;5033554;28;20218;-74
2024/01/18 06:28:38;;;;;;;27.07;21.63;;;0.80;99.90;;;;;;5032989;28;20430;-73
2024/01/18 06:31:05;;;;;;;30.43;21.90;;;0.80;99.90;;;;;;5031974;28;20982;-73
2024/01/18 06:33:31;;;;;;;28.70;21.60;;;0.70;99.90;;;;;;5033153;28;20433;-73
2024/01/18 06:35:56;;;;;;;29.27;23.30;;;0.70;99.90;;;;;;5033583;28;20432;-74
2024/01/18 06:38:22;;;;;;;30.10;22.10;;;0.70;99.90;;;;;;5033205;28;20430;-74
2024/01/18 06:40:48;;;;;;;28.43;21.57;;;0.70;99.90;;;;;;5031744;28;20178;-75
2024/01/18 06:43:17;;;;;;;26.33;21.60;;;0.80;99.90;;;;;;5033408;28;20181;-75
2024/01/18 06:45:42;;;;;;;25.17;20.97;;;0.70;99.90;;;;;;5032505;28;20472;-73
2024/01/18 06:48:09;;;;;;;27.50;22.33;;;0.70;99.90;;;;;;5030034;28;20452;-74
2024/01/18 06:50:35;;;;;;;27.83;21.57;;;0.70;99.90;;;;;;5028845;28;20640;-75
2024/01/18 06:53:03;;;;;;;30.33;23.77;;;0.60;99.90;;;;;;5028352;28;21011;-74
2024/01/18 06:55:29;;;;;;;25.50;20.67;;;0.70;99.90;;;;;;5029959;28;21313;-74
2024/01/18 06:57:55;;;;;;;27.97;20.80;;;0.60;99.90;;;;;;5029840;28;20530;-74
2024/01/18 07:00:24;;;;;;;25.60;21.90;;;0.60;99.90;;;;;;5033084;28;20436;-74
2024/01/18 07:02:50;;;;;;;25.80;19.80;;;0.50;99.90;;;;;;5031409;28;20795;-75
2024/01/18 07:05:20;;;;;;;29.93;21.47;;;0.50;99.90;;;;;;5011418;28;20958;-73
2024/01/18 07:07:46;;;;;;;30.60;21.90;;;0.50;99.90;;;;;;5031745;28;20428;-72
2024/01/18 07:10:12;;;;;;;25.70;21.00;;;0.40;99.90;;;;;;5014341;28;20996;-72
2024/01/18 07:12:37;;;;;;;28.80;21.20;;;0.40;99.90;;;;;;5031578;28;20406;-72
2024/01/18 07:15:03;;;;;;;24.70;19.40;;;0.40;99.90;;;;;;5031644;28;20178;-72
2024/01/18 07:17:29;;;;;;;24.27;19.17;;;0.30;99.90;;;;;;5030972;28;20182;-72
2024/01/18 07:19:56;;;;;;;26.27;20.07;;;0.30;99.90;;;;;;5032712;28;20510;-72
2024/01/18 07:22:22;;;;;;;28.37;22.23;;;0.30;99.90;;;;;;5014508;28;20433;-72
2024/01/18 07:24:49;;;;;;;29.23;22.13;;;0.20;99.90;;;;;;5031877;28;20432;-72
2024/01/18 07:27:15;;;;;;;32.40;21.23;;;0.20;99.90;;;;;;5035446;28;20471;-72
2024/01/18 07:29:41;;;;;;;32.70;23.00;;;0.10;99.90;;;;;;5036878;28;20515;-72
2024/01/18 07:32:06;;;;;;;28.70;20.53;;;0.10;99.90;;;;;;5037231;28;20435;-72
2024/01/18 07:34:33;;;;;;;27.13;19.83;;;0.00;99.90;;;;;;5036562;28;20196;-72
2024/01/18 07:36:59;;;;;;;28.13;19.70;;;0.00;99.90;;;;;;5036342;28;20197;-71
2024/01/18 07:39:25;;;;;;;26.57;20.83;;;0.00;99.90;;;;;;5036616;28;20424;-72
2024/01/18 07:41:50;;;;;;;24.10;20.00;;;-0.10;99.90;;;;;;5037129;28;20190;-72
2024/01/18 07:44:16;;;;;;;26.70;20.10;;;-0.10;99.90;;;;;;5037495;28;20648;-72
2024/01/18 07:46:41;;;;;;;23.47;18.93;;;-0.10;99.90;;;;;;5018253;28;20206;-72
2024/01/18 07:49:07;;;;;;;30.13;21.40;;;-0.10;99.90;;;;;;5037250;28;20193;-72
2024/01/18 07:51:33;;;;;;;28.77;20.77;;;-0.10;99.90;;;;;;5035993;28;20284;-71
2024/01/18 07:53:58;;;;;;;24.60;20.97;;;-0.10;99.90;;;;;;5037373;28;20194;-72
2024/01/18 07:56:26;;;;;;;24.90;19.60;;;-0.20;99.90;;;;;;5034290;28;20730;-72
2024/01/18 07:58:51;;;;;;;27.70;22.33;;;-0.20;99.90;;;;;;5035997;28;20197;-72
2024/01/18 08:01:18;;;;;;;30.43;22.20;;;-0.20;99.90;;;;;;5036158;28;20392;-71
2024/01/18 08:03:44;;;;;;;26.60;20.70;;;-0.20;99.90;;;;;;5034657;28;20761;-72
2024/01/18 08:06:11;;;;;;;30.33;21.90;;;-0.20;99.90;;;;;;5036361;28;20538;-72
2024/01/18 08:08:37;;;;;;;31.50;24.10;;;-0.20;99.90;;;;;;5001131;28;20447;-72
2024/01/18 08:11:03;;;;;;;33.97;22.77;;;-0.20;99.90;;;;;;5018793;28;20446;-72
2024/01/18 08:13:29;;;;;;;40.07;26.73;;;-0.20;99.90;;;;;;5034966;28;20433;-72
2024/01/18 08:15:57;;;;;;;35.17;24.27;;;-0.20;99.90;;;;;;5034300;28;20525;-72
2024/01/18 08:18:23;;;;;;;33.63;25.00;;;-0.20;99.90;;;;;;5035401;28;20190;-72
2024/01/18 08:20:50;;;;;;;36.73;25.80;;;-0.20;99.90;;;;;;5034559;28;20472;-72
2024/01/18 08:23:18;;;;;;;33.43;25.27;;;-0.20;99.90;;;;;;5035596;28;20440;-72
2024/01/18 08:25:44;;;;;;;34.27;24.30;;;-0.10;99.90;;;;;;5033541;28;21240;-72
2024/01/18 08:28:13;;;;;;;36.90;25.80;;;-0.10;99.90;;;;;;5018102;28;20477;-70
2024/01/18 08:30:39;;;;;;;31.13;24.53;;;-0.10;99.90;;;;;;5035772;28;20392;-70
2024/01/18 08:33:05;;;;;;;33.00;23.80;;;-0.10;99.90;;;;;;5035314;28;20782;-71
2024/01/18 08:35:30;;;;;;;33.43;24.47;;;0.00;99.90;;;;;;5035253;28;20428;-71
2024/01/18 08:37:56;;;;;;;31.87;23.60;;;0.10;99.90;;;;;;5034482;28;20243;-71
2024/01/18 08:40:22;;;;;;;34.00;23.53;;;0.20;99.90;;;;;;5035167;28;20990;-72
2024/01/18 08:42:48;;;;;;;28.10;23.20;;;0.20;99.90;;;;;;5035977;28;20285;-71
2024/01/18 08:45:14;;;;;;;30.70;24.20;;;0.40;99.90;;;;;;5034577;28;20467;-71
2024/01/18 08:47:40;;;;;;;30.30;23.00;;;0.60;99.90;;;;;;5034066;28;20294;-71
2024/01/18 08:50:06;;;;;;;35.97;23.83;;;0.80;99.90;;;;;;5035242;28;20719;-71
2024/01/18 08:52:32;;;;;;;30.73;24.90;;;1.00;99.90;;;;;;5034499;28;20445;-71
2024/01/18 08:54:57;;;;;;;31.10;26.30;;;1.20;99.90;;;;;;5035971;28;20918;-71
2024/01/18 08:57:23;;;;;;;29.60;23.87;;;1.40;99.90;;;;;;5034165;28;20189;-71
2024/01/18 08:59:49;;;;;;;31.50;24.37;;;1.60;99.90;;;;;;5035670;28;20224;-70
2024/01/18 09:02:15;;;;;;;33.47;25.37;;;1.80;99.90;;;;;;5034419;28;20200;-71
2024/01/18 09:04:41;;;;;;;32.03;24.60;;;2.00;99.90;;;;;;5034641;28;20182;-72
2024/01/18 09:07:06;;;;;;;30.43;24.10;;;2.10;99.90;;;;;;5017135;28;21071;-71
2024/01/18 09:09:32;;;;;;;33.10;25.10;;;2.20;99.90;;;;;;5032727;28;20692;-71
2024/01/18 09:11:58;;;;;;;31.83;24.80;;;2.40;99.90;;;;;;5015349;28;20212;-72
2024/01/18 09:14:24;;;;;;;29.50;25.10;;;2.50;99.90;;;;;;5033923;28;20193;-72
2024/01/18 09:16:50;;;;;;;29.57;24.17;;;2.70;99.90;;;;;;5034645;28;20849;-71
2024/01/18 09:19:15;;;;;;;33.90;24.83;;;2.90;99.90;;;;;;4999717;28;20181;-71
2024/01/18 09:21:43;;;;;;;27.07;23.03;;;3.00;99.90;;;;;;5016560;28;20417;-71
2024/01/18 09:24:10;;;;;;;33.50;25.00;;;3.10;99.90;;;;;;5035317;28;20186;-71
2024/01/18 09:26:35;;;;;;;28.07;23.60;;;3.20;99.90;;;;;;5032973;28;20483;-71
2024/01/18 09:29:02;;;;;;;28.70;23.57;;;3.30;99.90;;;;;;5034406;28;20429;-72
2024/01/18 09:31:28;;;;;;;28.30;23.43;;;3.30;99.90;;;;;;5033751;28;20186;-72
2024/01/18 09:33:54;;;;;;;29.47;22.57;;;3.40;99.90;;;;;;5033984;28;20429;-71
2024/01/18 09:36:19;;;;;;;26.83;23.17;;;3.50;99.90;;;;;;5034214;28;20429;-72
2024/01/18 09:38:46;;;;;;;29.43;21.73;;;3.50;99.90;;;;;;5034136;28;20182;-72
2024/01/18 09:41:18;;;;;;;23.07;20.20;;;3.50;99.90;;;;;;5034149;28;20233;-72
2024/01/18 09:43:44;;;;;;;30.13;22.57;;;3.60;99.90;;;;;;5033819;28;20531;-72
2024/01/18 09:46:11;;;;;;;30.43;21.93;;;3.60;99.90;;;;;;5032973;28;20507;-72
2024/01/18 09:48:39;;;;;;;25.63;21.57;;;3.70;99.90;;;;;;5033108;28;20421;-72
2024/01/18 09:51:06;;;;;;;26.00;20.73;;;3.90;99.90;;;;;;5033292;28;20418;-72
2024/01/18 09:53:33;;;;;;;27.40;23.37;;;4.00;99.90;;;;;;5032946;28;20426;-72
2024/01/18 09:56:09;;;;;;;30.63;24.50;;;4.20;99.90;;;;;;5034244;28;20497;-72
2024/01/18 09:58:35;;;;;;;28.77;22.70;;;4.30;99.90;;;;;;4999630;28;20432;-71
2024/01/18 10:01:04;;;;;;;30.47;24.40;;;4.50;99.90;;;;;;5034132;28;20421;-71
2024/01/18 10:03:30;;;;;;;27.27;22.43;;;4.70;99.90;;;;;;5032153;28;20190;-72
2024/01/18 10:05:56;;;;;;;28.40;23.13;;;4.80;99.90;;;;;;5033425;28;20475;-72
2024/01/18 10:08:22;;;;;;;26.50;22.80;;;5.00;99.90;;;;;;5033500;28;20273;-72
2024/01/18 10:10:47;;;;;;;29.30;23.30;;;5.10;99.90;;;;;;5033754;28;20201;-70
2024/01/18 10:13:13;;;;;;;26.17;22.33;;;5.10;99.90;;;;;;5033577;28;20429;-71
2024/01/18 10:15:39;;;;;;;25.17;22.17;;;5.30;99.90;;;;;;5033394;28;20853;-70
2024/01/18 10:18:06;;;;;;;25.63;20.50;;;5.40;99.90;;;;;;5033061;28;20268;-71
2024/01/18 10:20:32;;;;;;;25.10;21.10;;;5.50;99.90;;;;;;5033439;28;20436;-71
2024/01/18 10:22:59;;;;;;;25.60;20.80;;;5.50;99.90;;;;;;5034449;28;20432;-71
2024/01/18 10:25:29;;;;;;;22.70;19.10;;;5.60;99.90;;;;;;5032837;28;20469;-71
2024/01/18 10:27:56;;;;;;;22.90;19.83;;;5.70;99.90;;;;;;5032531;28;20421;-71
2024/01/18 10:30:22;;;;;;;25.03;19.30;;;5.90;99.90;;;;;;5033208;28;20532;-71
2024/01/18 10:32:49;;;;;;;26.53;20.20;;;6.00;99.90;;;;;;5032903;28;20432;-71
2024/01/18 10:35:20;;;;;;;28.80;21.70;;;6.20;99.90;;;;;;5014408;28;20441;-71
2024/01/18 10:37:46;;;;;;;23.50;19.13;;;6.40;99.90;;;;;;5016679;28;20436;-71
2024/01/18 10:40:18;;;;;;;24.60;19.73;;;6.60;99.90;;;;;;5034567;28;21029;-71
2024/01/18 10:42:45;;;;;;;20.53;18.10;;;6.40;99.90;;;;;;5001128;28;21222;-71
2024/01/18 10:45:12;;;;;;;23.40;19.87;;;6.20;99.90;;;;;;5031750;28;20477;-71
2024/01/18 10:47:38;;;;;;;23.00;18.37;;;5.80;99.90;;;;;;5001903;28;20428;-71
2024/01/18 10:50:06;;;;;;;19.13;17.13;;;5.70;99.90;;;;;;5034460;28;20432;-71
2024/01/18 10:52:35;;;;;;;20.13;17.27;;;5.50;99.90;;;;;;5032736;28;20416;-71
2024/01/18 10:55:06;;;;;;;23.50;17.30;;;5.30;99.90;;;;;;5033240;28;20410;-70
2024/01/18 10:57:32;;;;;;;18.10;15.70;;;5.20;99.90;;;;;;5032618;28;20455;-70
2024/01/18 10:59:59;;;;;;;18.30;14.20;;;5.10;99.90;;;;;;5034237;28;20458;-70
2024/01/18 11:02:25;;;;;;;18.80;14.00;;;5.10;99.90;;;;;;5032492;28;20177;-70
2024/01/18 11:04:54;;;;;;;21.83;14.67;;;5.00;99.90;;;;;;5033227;28;20483;-70
2024/01/18 11:07:20;;;;;;;16.30;13.90;;;5.10;99.90;;;;;;5015567;28;20919;-70
2024/01/18 11:09:47;;;;;;;21.07;14.10;;;5.20;99.90;;;;;;5033357;28;20490;-71
2024/01/18 11:12:13;;;;;;;15.60;13.90;;;5.30;99.90;;;;;;5033485;28;21131;-70
2024/01/18 11:14:41;;;;;;;19.03;14.70;;;5.30;99.90;;;;;;5033602;28;20428;-71
2024/01/18 11:17:17;;;;;;;16.50;13.90;;;5.20;99.90;;;;;;5033459;28;20444;-71
2024/01/18 11:19:45;;;;;;;17.67;15.93;;;5.10;99.90;;;;;;5033949;28;20424;-71
2024/01/18 11:22:21;;;;;;;17.87;14.57;;;5.00;99.90;;;;;;5033553;28;20474;-71
2024/01/18 11:24:47;;;;;;;19.80;16.07;;;5.00;99.90;;;;;;5033344;28;20423;-71
2024/01/18 11:27:17;;;;;;;15.60;13.70;;;5.00;99.90;;;;;;5033249;28;20912;-71
2024/01/18 11:29:45;;;;;;;20.40;13.47;;;5.30;99.90;;;;;;5033804;28;20266;-71
2024/01/18 11:32:15;;;;;;;19.03;15.13;;;5.60;99.90;;;;;;5032096;28;21261;-71
2024/01/18 11:34:42;;;;;;;17.80;14.80;;;5.70;99.90;;;;;;5033374;28;20455;-70
2024/01/18 11:37:18;;;;;;;18.53;15.77;;;5.80;99.90;;;;;;5033087;28;20440;-71
2024/01/18 11:39:47;;;;;;;21.20;14.63;;;5.90;99.90;;;;;;5033709;28;20420;-70
2024/01/18 11:42:19;;;;;;;15.63;13.50;;;5.80;99.90;;;;;;5032109;28;20431;-70
2024/01/18 11:44:59;;;;;;;19.63;14.93;;;5.60;99.90;;;;;;5033144;28;20422;-70
2024/01/18 11:47:28;;;;;;;17.20;15.27;;;5.50;99.90;;;;;;5032442;28;20840;-71
2024/01/18 11:49:54;;;;;;;16.70;14.40;;;5.70;99.90;;;;;;5033120;28;20845;-71
2024/01/18 11:52:23;;;;;;;17.60;15.23;;;5.70;99.90;;;;;;5032392;28;20432;-70
2024/01/18 11:54:55;;;;;;;17.70;14.83;;;5.70;99.90;;;;;;5033231;28;20428;-71
2024/01/18 11:57:22;;;;;;;18.43;16.43;;;5.70;99.90;;;;;;5031479;28;20443;-70
2024/01/18 11:59:48;;;;;;;17.93;16.00;;;5.90;99.90;;;;;;5033242;28;20421;-71
2024/01/18 12:02:14;;;;;;;19.07;15.30;;;6.40;99.90;;;;;;5032287;28;20876;-71
2024/01/18 12:04:40;;;;;;;18.70;14.20;;;7.00;99.90;;;;;;5032793;28;20508;-71
2024/01/18 12:07:11;;;;;;;13.43;11.93;;;7.50;99.90;;;;;;5032153;28;20301;-71
2024/01/18 12:09:37;;;;;;;16.13;13.40;;;8.00;99.90;;;;;;5032045;28;20448;-71
2024/01/18 12:12:04;;;;;;;17.93;15.10;;;8.20;99.90;;;;;;5033260;28;20434;-71
2024/01/18 12:14:30;;;;;;;13.17;11.97;;;8.50;99.90;;;;;;5036270;28;20425;-71
2024/01/18 12:16:56;;;;;;;13.80;11.60;;;8.80;99.90;;;;;;5018577;28;20444;-71
2024/01/18 12:19:38;;;;;;;16.00;13.20;;;9.50;99.90;;;;;;5036306;28;20914;-71
2024/01/18 12:22:20;;;;;;;11.57;10.37;;;10.20;99.90;;;;;;5035927;28;21061;-71
2024/01/18 12:24:49;;;;;;;12.20;10.43;;;11.30;99.90;;;;;;5036306;28;20425;-71
2024/01/18 12:27:14;;;;;;;11.40;10.10;;;12.10;98.70;;;;;;5035233;28;20479;-71
2024/01/18 12:29:41;;;;;;;11.50;9.47;;;12.70;96.00;;;;;;5018689;28;20425;-71
2024/01/18 12:32:10;;;;;;;10.70;9.80;;;12.60;93.90;;;;;;5035448;28;20424;-71